EGNX - East Midlands
Distance from station: E 5mi, 14km
Updated: 07/23/2018 9:50am
Clear
Clear
 Wind from SSW
Wind: SSW 17 mph , 28 km/h
Temperature: 82°F , 28°C
Heat Index: 82°F , 28°C
Dew Point: 61°F , 16°C
Humidity: 48%
Barometer: 29.91 inHg , 1013 hPa
Summary: Clear
Visibility: greater than 7 miles , 10 km
2018/07/23 16:50 EGNX 231650Z 21015KT CAVOK 28/16 Q1013